sensor_id;sensor_type;location;lat;lon;timestamp;pressure;altitude;pressure_sealevel;temperature
35960;BMP280;22043;50.970;7.192;2023-03-23T00:01:18;98213.56;;;11.89
35960;BMP280;22043;50.970;7.192;2023-03-23T00:03:46;98214.31;;;11.89
35960;BMP280;22043;50.970;7.192;2023-03-23T00:06:12;98209.19;;;11.91
35960;BMP280;22043;50.970;7.192;2023-03-23T00:08:46;98207.84;;;11.96
35960;BMP280;22043;50.970;7.192;2023-03-23T00:11:18;98206.34;;;11.95
35960;BMP280;22043;50.970;7.192;2023-03-23T00:13:49;98222.72;;;11.95
35960;BMP280;22043;50.970;7.192;2023-03-23T00:16:22;98209.38;;;11.97
35960;BMP280;22043;50.970;7.192;2023-03-23T00:18:54;98203.16;;;11.96
35960;BMP280;22043;50.970;7.192;2023-03-23T00:21:25;98194.88;;;12.00
35960;BMP280;22043;50.970;7.192;2023-03-23T00:26:27;98191.94;;;11.94
35960;BMP280;22043;50.970;7.192;2023-03-23T00:28:54;98186.66;;;12.00
35960;BMP280;22043;50.970;7.192;2023-03-23T00:31:19;98196.94;;;11.96
35960;BMP280;22043;50.970;7.192;2023-03-23T00:33:45;98193.31;;;11.99
35960;BMP280;22043;50.970;7.192;2023-03-23T00:36:12;98189.81;;;11.98
35960;BMP280;22043;50.970;7.192;2023-03-23T00:38:39;98204.13;;;12.02
35960;BMP280;22043;50.970;7.192;2023-03-23T00:41:05;98183.94;;;12.00
35960;BMP280;22043;50.970;7.192;2023-03-23T00:43:32;98199.75;;;12.05
35960;BMP280;22043;50.970;7.192;2023-03-23T00:46:01;98182.72;;;12.01
35960;BMP280;22043;50.970;7.192;2023-03-23T00:48:28;98198.28;;;12.13
35960;BMP280;22043;50.970;7.192;2023-03-23T00:50:54;98202.66;;;12.11
35960;BMP280;22043;50.970;7.192;2023-03-23T00:53:20;98206.78;;;12.15
35960;BMP280;22043;50.970;7.192;2023-03-23T00:55:46;98197.41;;;12.16
35960;BMP280;22043;50.970;7.192;2023-03-23T00:58:13;98179.16;;;12.13
35960;BMP280;22043;50.970;7.192;2023-03-23T01:00:40;98187.69;;;12.15
35960;BMP280;22043;50.970;7.192;2023-03-23T01:03:06;98164.41;;;12.11
35960;BMP280;22043;50.970;7.192;2023-03-23T01:05:36;98170.88;;;12.17
35960;BMP280;22043;50.970;7.192;2023-03-23T01:08:02;98179.47;;;12.15
35960;BMP280;22043;50.970;7.192;2023-03-23T01:10:30;98180.09;;;12.19
35960;BMP280;22043;50.970;7.192;2023-03-23T01:12:58;98184.53;;;12.17
35960;BMP280;22043;50.970;7.192;2023-03-23T01:15:25;98166.28;;;12.14
35960;BMP280;22043;50.970;7.192;2023-03-23T01:17:51;98168.25;;;12.13
35960;BMP280;22043;50.970;7.192;2023-03-23T01:20:16;98165.50;;;12.13
35960;BMP280;22043;50.970;7.192;2023-03-23T01:22:42;98170.00;;;12.07
35960;BMP280;22043;50.970;7.192;2023-03-23T01:25:09;98164.69;;;12.03
35960;BMP280;22043;50.970;7.192;2023-03-23T01:27:35;98161.34;;;11.99
35960;BMP280;22043;50.970;7.192;2023-03-23T01:30:01;98163.53;;;11.92
35960;BMP280;22043;50.970;7.192;2023-03-23T01:32:28;98162.78;;;11.91
35960;BMP280;22043;50.970;7.192;2023-03-23T01:34:54;98160.59;;;11.86
35960;BMP280;22043;50.970;7.192;2023-03-23T01:37:20;98150.25;;;11.81
35960;BMP280;22043;50.970;7.192;2023-03-23T01:39:54;98155.41;;;11.79
35960;BMP280;22043;50.970;7.192;2023-03-23T01:42:22;98150.81;;;11.76
35960;BMP280;22043;50.970;7.192;2023-03-23T01:47:16;98143.91;;;11.62
35960;BMP280;22043;50.970;7.192;2023-03-23T01:49:45;98152.19;;;11.59
35960;BMP280;22043;50.970;7.192;2023-03-23T01:52:17;98160.84;;;11.57
35960;BMP280;22043;50.970;7.192;2023-03-23T01:54:46;98154.41;;;11.51
35960;BMP280;22043;50.970;7.192;2023-03-23T01:57:14;98148.97;;;11.51
35960;BMP280;22043;50.970;7.192;2023-03-23T01:59:43;98152.25;;;11.46
35960;BMP280;22043;50.970;7.192;2023-03-23T02:02:24;98149.16;;;11.44
35960;BMP280;22043;50.970;7.192;2023-03-23T02:04:55;98152.06;;;11.40
35960;BMP280;22043;50.970;7.192;2023-03-23T02:07:23;98144.19;;;11.42
35960;BMP280;22043;50.970;7.192;2023-03-23T02:09:51;98143.66;;;11.35
35960;BMP280;22043;50.970;7.192;2023-03-23T02:12:17;98148.44;;;11.31
35960;BMP280;22043;50.970;7.192;2023-03-23T02:14:44;98139.31;;;11.25
35960;BMP280;22043;50.970;7.192;2023-03-23T02:17:23;98157.84;;;11.30
35960;BMP280;22043;50.970;7.192;2023-03-23T02:22:53;98143.78;;;11.18
35960;BMP280;22043;50.970;7.192;2023-03-23T02:28:08;98156.31;;;11.29
35960;BMP280;22043;50.970;7.192;2023-03-23T02:33:52;98147.50;;;11.25
35960;BMP280;22043;50.970;7.192;2023-03-23T02:36:24;98113.78;;;11.18
35960;BMP280;22043;50.970;7.192;2023-03-23T02:39:04;98108.44;;;11.15
35960;BMP280;22043;50.970;7.192;2023-03-23T02:41:36;98103.19;;;11.20
35960;BMP280;22043;50.970;7.192;2023-03-23T02:44:03;98104.44;;;11.19
35960;BMP280;22043;50.970;7.192;2023-03-23T02:46:30;98084.81;;;11.12
35960;BMP280;22043;50.970;7.192;2023-03-23T02:48:56;98091.31;;;11.14
35960;BMP280;22043;50.970;7.192;2023-03-23T02:51:22;98074.66;;;11.12
35960;BMP280;22043;50.970;7.192;2023-03-23T02:53:50;98069.50;;;11.14
35960;BMP280;22043;50.970;7.192;2023-03-23T02:56:18;98085.97;;;11.11
35960;BMP280;22043;50.970;7.192;2023-03-23T02:58:45;98092.50;;;11.13
35960;BMP280;22043;50.970;7.192;2023-03-23T03:03:55;98087.94;;;11.10
35960;BMP280;22043;50.970;7.192;2023-03-23T03:06:31;98080.97;;;11.09
35960;BMP280;22043;50.970;7.192;2023-03-23T03:09:01;98090.13;;;11.15
35960;BMP280;22043;50.970;7.192;2023-03-23T03:11:30;98091.13;;;11.09
35960;BMP280;22043;50.970;7.192;2023-03-23T03:14:03;98070.94;;;11.06
35960;BMP280;22043;50.970;7.192;2023-03-23T03:16:38;98077.03;;;11.10
35960;BMP280;22043;50.970;7.192;2023-03-23T03:19:13;98078.88;;;11.13
35960;BMP280;22043;50.970;7.192;2023-03-23T03:21:43;98052.50;;;11.10
35960;BMP280;22043;50.970;7.192;2023-03-23T03:24:12;98057.28;;;11.06
35960;BMP280;22043;50.970;7.192;2023-03-23T03:26:41;98062.13;;;11.02
35960;BMP280;22043;50.970;7.192;2023-03-23T03:29:25;98075.97;;;11.08
35960;BMP280;22043;50.970;7.192;2023-03-23T03:31:53;98079.34;;;11.12
35960;BMP280;22043;50.970;7.192;2023-03-23T03:34:21;98079.78;;;11.10
35960;BMP280;22043;50.970;7.192;2023-03-23T03:36:51;98102.13;;;11.18
35960;BMP280;22043;50.970;7.192;2023-03-23T03:39:19;98104.19;;;11.14
35960;BMP280;22043;50.970;7.192;2023-03-23T03:41:46;98090.53;;;11.14
35960;BMP280;22043;50.970;7.192;2023-03-23T03:44:12;98088.72;;;11.11
35960;BMP280;22043;50.970;7.192;2023-03-23T03:46:37;98104.94;;;11.14
35960;BMP280;22043;50.970;7.192;2023-03-23T03:49:06;98103.31;;;11.17
35960;BMP280;22043;50.970;7.192;2023-03-23T03:51:34;98089.16;;;11.09
35960;BMP280;22043;50.970;7.192;2023-03-23T03:54:00;98089.03;;;11.13
35960;BMP280;22043;50.970;7.192;2023-03-23T03:56:26;98102.13;;;11.18
35960;BMP280;22043;50.970;7.192;2023-03-23T03:59:04;98097.53;;;11.15
35960;BMP280;22043;50.970;7.192;2023-03-23T04:01:46;98101.69;;;11.19
35960;BMP280;22043;50.970;7.192;2023-03-23T04:04:12;98101.34;;;11.17
35960;BMP280;22043;50.970;7.192;2023-03-23T04:06:39;98103.75;;;11.15
35960;BMP280;22043;50.970;7.192;2023-03-23T04:09:05;98098.50;;;11.21
35960;BMP280;22043;50.970;7.192;2023-03-23T04:11:32;98106.25;;;11.22
35960;BMP280;22043;50.970;7.192;2023-03-23T04:14:18;98105.91;;;11.20
35960;BMP280;22043;50.970;7.192;2023-03-23T04:16:44;98097.53;;;11.15
35960;BMP280;22043;50.970;7.192;2023-03-23T04:19:10;98088.28;;;11.12
35960;BMP280;22043;50.970;7.192;2023-03-23T04:21:37;98100.59;;;11.17
35960;BMP280;22043;50.970;7.192;2023-03-23T04:24:04;98102.88;;;11.18
35960;BMP280;22043;50.970;7.192;2023-03-23T04:26:29;98101.53;;;11.23
35960;BMP280;22043;50.970;7.192;2023-03-23T04:29:00;98105.06;;;11.24
35960;BMP280;22043;50.970;7.192;2023-03-23T04:31:32;98106.25;;;11.22
35960;BMP280;22043;50.970;7.192;2023-03-23T04:34:09;98099.25;;;11.21
35960;BMP280;22043;50.970;7.192;2023-03-23T04:36:40;98098.97;;;11.19
35960;BMP280;22043;50.970;7.192;2023-03-23T04:39:13;98100.47;;;11.20
35960;BMP280;22043;50.970;7.192;2023-03-23T04:41:40;98111.94;;;11.28
35960;BMP280;22043;50.970;7.192;2023-03-23T04:44:23;98090.97;;;11.25
35960;BMP280;22043;50.970;7.192;2023-03-23T04:47:03;98119.00;;;11.26
35960;BMP280;22043;50.970;7.192;2023-03-23T04:49:34;98115.97;;;11.24
35960;BMP280;22043;50.970;7.192;2023-03-23T04:52:11;98114.41;;;11.22
35960;BMP280;22043;50.970;7.192;2023-03-23T04:54:47;98109.31;;;11.25
35960;BMP280;22043;50.970;7.192;2023-03-23T04:57:13;98111.69;;;11.22
35960;BMP280;22043;50.970;7.192;2023-03-23T04:59:44;98112.03;;;11.25
35960;BMP280;22043;50.970;7.192;2023-03-23T05:02:15;98107.34;;;11.25
35960;BMP280;22043;50.970;7.192;2023-03-23T05:04:44;98102.00;;;11.21
35960;BMP280;22043;50.970;7.192;2023-03-23T05:07:13;98104.72;;;11.21
35960;BMP280;22043;50.970;7.192;2023-03-23T05:09:48;98118.88;;;11.29
35960;BMP280;22043;50.970;7.192;2023-03-23T05:12:16;98108.41;;;11.28
35960;BMP280;22043;50.970;7.192;2023-03-23T05:15:05;98124.78;;;11.28
35960;BMP280;22043;50.970;7.192;2023-03-23T05:17:33;98119.13;;;11.22
35960;BMP280;22043;50.970;7.192;2023-03-23T05:20:03;98111.94;;;11.28
35960;BMP280;22043;50.970;7.192;2023-03-23T05:22:38;98121.94;;;11.31
35960;BMP280;22043;50.970;7.192;2023-03-23T05:25:06;98118.34;;;11.34
35960;BMP280;22043;50.970;7.192;2023-03-23T05:27:36;98132.75;;;11.35
35960;BMP280;22043;50.970;7.192;2023-03-23T05:30:12;98126.53;;;11.34
35960;BMP280;22043;50.970;7.192;2023-03-23T05:32:41;98126.53;;;11.34
35960;BMP280;22043;50.970;7.192;2023-03-23T05:35:23;98120.19;;;11.37
35960;BMP280;22043;50.970;7.192;2023-03-23T05:37:51;98120.94;;;11.38
35960;BMP280;22043;50.970;7.192;2023-03-23T05:40:19;98119.19;;;11.31
35960;BMP280;22043;50.970;7.192;2023-03-23T05:42:52;98136.53;;;11.37
35960;BMP280;22043;50.970;7.192;2023-03-23T05:45:25;98128.50;;;11.34
35960;BMP280;22043;50.970;7.192;2023-03-23T05:47:51;98133.38;;;11.39
35960;BMP280;22043;50.970;7.192;2023-03-23T05:50:20;98137.00;;;11.36
35960;BMP280;22043;50.970;7.192;2023-03-23T05:52:46;98135.91;;;11.33
35960;BMP280;22043;50.970;7.192;2023-03-23T05:55:14;98138.50;;;11.37
35960;BMP280;22043;50.970;7.192;2023-03-23T05:57:43;98131.41;;;11.39
35960;BMP280;22043;50.970;7.192;2023-03-23T06:00:37;98124.88;;;11.37
35960;BMP280;22043;50.970;7.192;2023-03-23T06:03:17;98130.97;;;11.41
35960;BMP280;22043;50.970;7.192;2023-03-23T06:05:49;98125.63;;;11.37
35960;BMP280;22043;50.970;7.192;2023-03-23T06:08:17;98140.69;;;11.42
35960;BMP280;22043;50.970;7.192;2023-03-23T06:10:43;98137.06;;;11.45
35960;BMP280;22043;50.970;7.192;2023-03-23T06:13:11;98136.28;;;11.44
35960;BMP280;22043;50.970;7.192;2023-03-23T06:15:44;98137.97;;;11.42
35960;BMP280;22043;50.970;7.192;2023-03-23T06:18:32;98142.53;;;11.45
35960;BMP280;22043;50.970;7.192;2023-03-23T06:21:12;98149.06;;;11.47
35960;BMP280;22043;50.970;7.192;2023-03-23T06:24:04;98147.53;;;11.46
35960;BMP280;22043;50.970;7.192;2023-03-23T06:26:32;98150.16;;;11.50
35960;BMP280;22043;50.970;7.192;2023-03-23T06:29:01;98146.97;;;11.51
35960;BMP280;22043;50.970;7.192;2023-03-23T06:31:29;98156.66;;;11.52
35960;BMP280;22043;50.970;7.192;2023-03-23T06:33:55;98155.41;;;11.57
35960;BMP280;22043;50.970;7.192;2023-03-23T06:36:24;98154.91;;;11.59
35960;BMP280;22043;50.970;7.192;2023-03-23T06:39:15;98140.53;;;11.58
35960;BMP280;22043;50.970;7.192;2023-03-23T06:41:50;98148.16;;;11.63
35960;BMP280;22043;50.970;7.192;2023-03-23T06:44:15;98159.69;;;11.67
35960;BMP280;22043;50.970;7.192;2023-03-23T06:46:41;98151.19;;;11.65
35960;BMP280;22043;50.970;7.192;2023-03-23T06:49:16;98161.97;;;11.69
35960;BMP280;22043;50.970;7.192;2023-03-23T06:51:51;98170.50;;;11.71
35960;BMP280;22043;50.970;7.192;2023-03-23T06:54:17;98167.19;;;11.76
35960;BMP280;22043;50.970;7.192;2023-03-23T06:56:43;98164.03;;;11.77
35960;BMP280;22043;50.970;7.192;2023-03-23T06:59:09;98171.34;;;11.81
35960;BMP280;22043;50.970;7.192;2023-03-23T07:01:36;98181.78;;;11.82
35960;BMP280;22043;50.970;7.192;2023-03-23T07:04:03;98168.94;;;11.83
35960;BMP280;22043;50.970;7.192;2023-03-23T07:06:47;98177.44;;;11.85
35960;BMP280;22043;50.970;7.192;2023-03-23T07:09:13;98175.03;;;11.87
35960;BMP280;22043;50.970;7.192;2023-03-23T07:11:40;98178.81;;;11.89
35960;BMP280;22043;50.970;7.192;2023-03-23T07:14:15;98180.25;;;11.94
35960;BMP280;22043;50.970;7.192;2023-03-23T07:16:40;98186.78;;;11.96
35960;BMP280;22043;50.970;7.192;2023-03-23T07:19:06;98188.75;;;11.96
35960;BMP280;22043;50.970;7.192;2023-03-23T07:21:31;98175.53;;;11.94
35960;BMP280;22043;50.970;7.192;2023-03-23T07:23:57;98188.66;;;11.99
35960;BMP280;22043;50.970;7.192;2023-03-23T07:26:37;98185.91;;;11.99
35960;BMP280;22043;50.970;7.192;2023-03-23T07:29:03;98187.84;;;11.99
35960;BMP280;22043;50.970;7.192;2023-03-23T07:31:37;98187.44;;;12.00
35960;BMP280;22043;50.970;7.192;2023-03-23T07:34:03;98191.22;;;12.03
35960;BMP280;22043;50.970;7.192;2023-03-23T07:36:42;98185.47;;;12.01
35960;BMP280;22043;50.970;7.192;2023-03-23T07:39:08;98184.56;;;12.04
35960;BMP280;22043;50.970;7.192;2023-03-23T07:41:34;98181.28;;;12.09
35960;BMP280;22043;50.970;7.192;2023-03-23T07:44:06;98183.53;;;12.11
35960;BMP280;22043;50.970;7.192;2023-03-23T07:46:35;98179.59;;;12.12
35960;BMP280;22043;50.970;7.192;2023-03-23T07:49:09;98179.47;;;12.15
35960;BMP280;22043;50.970;7.192;2023-03-23T07:51:40;98182.22;;;12.15
35960;BMP280;22043;50.970;7.192;2023-03-23T07:54:08;98188.00;;;12.17
35960;BMP280;22043;50.970;7.192;2023-03-23T07:56:52;98189.50;;;12.18
35960;BMP280;22043;50.970;7.192;2023-03-23T07:59:27;98190.47;;;12.24
35960;BMP280;22043;50.970;7.192;2023-03-23T08:01:53;98187.75;;;12.24
35960;BMP280;22043;50.970;7.192;2023-03-23T08:04:32;98176.50;;;12.22
35960;BMP280;22043;50.970;7.192;2023-03-23T08:07:12;98188.69;;;12.30
35960;BMP280;22043;50.970;7.192;2023-03-23T08:09:47;98183.41;;;12.36
35960;BMP280;22043;50.970;7.192;2023-03-23T08:12:29;98176.59;;;12.41
35960;BMP280;22043;50.970;7.192;2023-03-23T08:15:25;98185.88;;;12.43
35960;BMP280;22043;50.970;7.192;2023-03-23T08:18:10;98190.44;;;12.46
35960;BMP280;22043;50.970;7.192;2023-03-23T08:20:53;98181.34;;;12.49
35960;BMP280;22043;50.970;7.192;2023-03-23T08:23:45;98189.28;;;12.56
35960;BMP280;22043;50.970;7.192;2023-03-23T08:26:33;98188.28;;;12.63
35960;BMP280;22043;50.970;7.192;2023-03-23T08:29:22;98174.56;;;12.54
35960;BMP280;22043;50.970;7.192;2023-03-23T08:32:04;98182.19;;;12.59
35960;BMP280;22043;50.970;7.192;2023-03-23T08:35:10;98189.78;;;12.64
35960;BMP280;22043;50.970;7.192;2023-03-23T08:38:08;98185.84;;;12.65
35960;BMP280;22043;50.970;7.192;2023-03-23T08:41:04;98191.94;;;12.69
35960;BMP280;22043;50.970;7.192;2023-03-23T08:43:49;98191.31;;;12.65
35960;BMP280;22043;50.970;7.192;2023-03-23T08:46:16;98194.34;;;12.67
35960;BMP280;22043;50.970;7.192;2023-03-23T08:49:08;98206.06;;;12.68
35960;BMP280;22043;50.970;7.192;2023-03-23T08:51:52;98187.81;;;12.64
35960;BMP280;22043;50.970;7.192;2023-03-23T08:54:31;98193.78;;;12.72
35960;BMP280;22043;50.970;7.192;2023-03-23T08:57:23;98186.34;;;12.73
35960;BMP280;22043;50.970;7.192;2023-03-23T09:00:13;98200.75;;;12.73
35960;BMP280;22043;50.970;7.192;2023-03-23T09:02:59;98201.25;;;12.81
35960;BMP280;22043;50.970;7.192;2023-03-23T09:05:34;98212.50;;;12.83
35960;BMP280;22043;50.970;7.192;2023-03-23T09:08:02;98201.25;;;12.81
35960;BMP280;22043;50.970;7.192;2023-03-23T09:10:29;98203.09;;;12.84
35960;BMP280;22043;50.970;7.192;2023-03-23T09:12:55;98207.03;;;12.83
35960;BMP280;22043;50.970;7.192;2023-03-23T09:15:21;98221.66;;;12.89
35960;BMP280;22043;50.970;7.192;2023-03-23T09:17:49;98228.63;;;12.90
35960;BMP280;22043;50.970;7.192;2023-03-23T09:20:18;98217.53;;;12.84
35960;BMP280;22043;50.970;7.192;2023-03-23T09:22:45;98217.84;;;12.86
35960;BMP280;22043;50.970;7.192;2023-03-23T09:25:13;98228.50;;;12.93
35960;BMP280;22043;50.970;7.192;2023-03-23T09:27:40;98234.44;;;12.92
35960;BMP280;22043;50.970;7.192;2023-03-23T09:30:09;98232.75;;;12.94
35960;BMP280;22043;50.970;7.192;2023-03-23T09:32:36;98219.72;;;12.99
35960;BMP280;22043;50.970;7.192;2023-03-23T09:35:04;98205.44;;;13.04
35960;BMP280;22043;50.970;7.192;2023-03-23T09:37:31;98207.56;;;13.00
35960;BMP280;22043;50.970;7.192;2023-03-23T09:39:58;98217.75;;;13.08
35960;BMP280;22043;50.970;7.192;2023-03-23T09:45:21;98217.34;;;13.19
35960;BMP280;22043;50.970;7.192;2023-03-23T09:50:31;98236.22;;;13.17
35960;BMP280;22043;50.970;7.192;2023-03-23T09:53:14;98239.09;;;13.22
35960;BMP280;22043;50.970;7.192;2023-03-23T09:55:40;98238.59;;;13.15
35960;BMP280;22043;50.970;7.192;2023-03-23T09:58:37;98229.47;;;13.09
35960;BMP280;22043;50.970;7.192;2023-03-23T10:01:15;98244.69;;;13.10
35960;BMP280;22043;50.970;7.192;2023-03-23T10:03:44;98237.34;;;13.07
35960;BMP280;22043;50.970;7.192;2023-03-23T10:06:15;98235.84;;;13.06
35960;BMP280;22043;50.970;7.192;2023-03-23T10:08:47;98244.53;;;13.04
35960;BMP280;22043;50.970;7.192;2023-03-23T10:13:55;98244.31;;;12.99
35960;BMP280;22043;50.970;7.192;2023-03-23T10:16:30;98243.88;;;13.00
35960;BMP280;22043;50.970;7.192;2023-03-23T10:19:20;98241.44;;;13.02
35960;BMP280;22043;50.970;7.192;2023-03-23T10:21:50;98253.50;;;13.05
35960;BMP280;22043;50.970;7.192;2023-03-23T10:24:21;98235.84;;;13.06
35960;BMP280;22043;50.970;7.192;2023-03-23T10:27:13;98234.94;;;13.09
35960;BMP280;22043;50.970;7.192;2023-03-23T10:29:57;98237.69;;;13.09
35960;BMP280;22043;50.970;7.192;2023-03-23T10:32:44;98244.41;;;13.17
35960;BMP280;22043;50.970;7.192;2023-03-23T10:35:19;98239.41;;;13.24
35960;BMP280;22043;50.970;7.192;2023-03-23T10:37:54;98234.53;;;13.29
35960;BMP280;22043;50.970;7.192;2023-03-23T10:40:25;98221.16;;;13.21
35960;BMP280;22043;50.970;7.192;2023-03-23T10:42:53;98235.28;;;13.29
35960;BMP280;22043;50.970;7.192;2023-03-23T10:45:28;98230.28;;;13.28
35960;BMP280;22043;50.970;7.192;2023-03-23T10:50:44;98224.66;;;13.22
35960;BMP280;22043;50.970;7.192;2023-03-23T10:53:18;98248.50;;;13.21
35960;BMP280;22043;50.970;7.192;2023-03-23T10:55:46;98240.88;;;13.16
35960;BMP280;22043;50.970;7.192;2023-03-23T10:58:26;98243.47;;;13.11
35960;BMP280;22043;50.970;7.192;2023-03-23T11:00:54;98236.47;;;13.10
35960;BMP280;22043;50.970;7.192;2023-03-23T11:03:26;98235.59;;;13.13
35960;BMP280;22043;50.970;7.192;2023-03-23T11:05:57;98240.75;;;13.20
35960;BMP280;22043;50.970;7.192;2023-03-23T11:08:26;98248.50;;;13.21
35960;BMP280;22043;50.970;7.192;2023-03-23T11:11:06;98244.44;;;13.26
35960;BMP280;22043;50.970;7.192;2023-03-23T11:13:32;98245.19;;;13.27
35960;BMP280;22043;50.970;7.192;2023-03-23T11:15:59;98240.34;;;13.31
35960;BMP280;22043;50.970;7.192;2023-03-23T11:18:40;98244.75;;;13.37
35960;BMP280;22043;50.970;7.192;2023-03-23T11:21:07;98236.88;;;13.39
35960;BMP280;22043;50.970;7.192;2023-03-23T11:23:37;98240.81;;;13.38
35960;BMP280;22043;50.970;7.192;2023-03-23T11:26:24;98236.56;;;13.46
35960;BMP280;22043;50.970;7.192;2023-03-23T11:31:30;98235.78;;;13.46
35960;BMP280;22043;50.970;7.192;2023-03-23T11:34:04;98226.53;;;13.43
35960;BMP280;22043;50.970;7.192;2023-03-23T11:36:40;98231.09;;;13.46
35960;BMP280;22043;50.970;7.192;2023-03-23T11:39:20;98231.84;;;13.47
35960;BMP280;22043;50.970;7.192;2023-03-23T11:41:46;98227.16;;;13.47
35960;BMP280;22043;50.970;7.192;2023-03-23T11:44:11;98231.88;;;13.56
35960;BMP280;22043;50.970;7.192;2023-03-23T11:46:46;98226.84;;;13.54
35960;BMP280;22043;50.970;7.192;2023-03-23T11:52:13;98218.34;;;13.52
35960;BMP280;22043;50.970;7.192;2023-03-23T11:54:46;98211.78;;;13.50
35960;BMP280;22043;50.970;7.192;2023-03-23T11:57:12;98209.84;;;13.50
35960;BMP280;22043;50.970;7.192;2023-03-23T11:59:39;98208.75;;;13.48
35960;BMP280;22043;50.970;7.192;2023-03-23T12:11:03;98219.81;;;13.35
35960;BMP280;22043;50.970;7.192;2023-03-23T12:13:43;98214.19;;;13.30
35960;BMP280;22043;50.970;7.192;2023-03-23T12:25:15;98222.72;;;13.41
35960;BMP280;22043;50.970;7.192;2023-03-23T12:27:55;98228.81;;;13.45
35960;BMP280;22043;50.970;7.192;2023-03-23T12:30:35;98226.84;;;13.45
35960;BMP280;22043;50.970;7.192;2023-03-23T12:33:18;98230.22;;;13.59
35960;BMP280;22043;50.970;7.192;2023-03-23T12:43:42;98237.06;;;13.63
35960;BMP280;22043;50.970;7.192;2023-03-23T12:48:41;98228.53;;;13.70
35960;BMP280;22043;50.970;7.192;2023-03-23T12:51:16;98230.06;;;13.71
35960;BMP280;22043;50.970;7.192;2023-03-23T12:53:58;98229.91;;;13.75
35960;BMP280;22043;50.970;7.192;2023-03-23T12:56:34;98238.44;;;13.77
35960;BMP280;22043;50.970;7.192;2023-03-23T12:59:13;98232.34;;;13.73
35960;BMP280;22043;50.970;7.192;2023-03-23T13:01:47;98232.50;;;13.69
35960;BMP280;22043;50.970;7.192;2023-03-23T13:04:18;98225.94;;;13.67
35960;BMP280;22043;50.970;7.192;2023-03-23T13:06:47;98232.34;;;13.64
35960;BMP280;22043;50.970;7.192;2023-03-23T13:09:35;98240.13;;;13.65
35960;BMP280;22043;50.970;7.192;2023-03-23T13:12:03;98238.59;;;13.64
35960;BMP280;22043;50.970;7.192;2023-03-23T13:14:32;98246.19;;;13.60
35960;BMP280;22043;50.970;7.192;2023-03-23T13:17:07;98251.19;;;13.62
35960;BMP280;22043;50.970;7.192;2023-03-23T13:22:50;98244.66;;;13.59
35960;BMP280;22043;50.970;7.192;2023-03-23T13:25:50;98227.63;;;13.55
35960;BMP280;22043;50.970;7.192;2023-03-23T13:28:23;98222.91;;;13.56
35960;BMP280;22043;50.970;7.192;2023-03-23T13:30:55;98227.47;;;13.59
35960;BMP280;22043;50.970;7.192;2023-03-23T13:33:22;98221.69;;;13.57
35960;BMP280;22043;50.970;7.192;2023-03-23T13:35:49;98208.63;;;13.51
35960;BMP280;22043;50.970;7.192;2023-03-23T13:38:24;98219.56;;;13.51
35960;BMP280;22043;50.970;7.192;2023-03-23T13:40:51;98238.72;;;13.51
35960;BMP280;22043;50.970;7.192;2023-03-23T13:43:32;98223.66;;;13.56
35960;BMP280;22043;50.970;7.192;2023-03-23T13:46:28;98233.84;;;13.56
35960;BMP280;22043;50.970;7.192;2023-03-23T13:49:29;98234.16;;;13.58
35960;BMP280;22043;50.970;7.192;2023-03-23T13:52:14;98241.16;;;13.59
35960;BMP280;22043;50.970;7.192;2023-03-23T13:54:43;98244.66;;;13.59
35960;BMP280;22043;50.970;7.192;2023-03-23T13:57:33;98236.59;;;13.56
35960;BMP280;22043;50.970;7.192;2023-03-23T14:13:05;98262.00;;;13.56
35960;BMP280;22043;50.970;7.192;2023-03-23T14:15:40;98258.81;;;13.58
35960;BMP280;22043;50.970;7.192;2023-03-23T14:18:06;98264.56;;;13.60
35960;BMP280;22043;50.970;7.192;2023-03-23T14:20:36;98250.88;;;13.60
35960;BMP280;22043;50.970;7.192;2023-03-23T14:23:01;98263.09;;;13.68
35960;BMP280;22043;50.970;7.192;2023-03-23T14:25:29;98246.50;;;13.71
35960;BMP280;22043;50.970;7.192;2023-03-23T14:27:56;98252.44;;;13.70
35960;BMP280;22043;50.970;7.192;2023-03-23T14:30:24;98236.75;;;13.70
35960;BMP280;22043;50.970;7.192;2023-03-23T14:33:04;98236.94;;;13.76
35960;BMP280;22043;50.970;7.192;2023-03-23T14:35:37;98225.03;;;13.79
35960;BMP280;22043;50.970;7.192;2023-03-23T14:38:16;98217.16;;;13.81
35960;BMP280;22043;50.970;7.192;2023-03-23T14:40:43;98224.28;;;13.88
35960;BMP280;22043;50.970;7.192;2023-03-23T14:43:10;98234.94;;;13.86
35960;BMP280;22043;50.970;7.192;2023-03-23T14:45:39;98225.66;;;13.83
35960;BMP280;22043;50.970;7.192;2023-03-23T14:48:05;98231.44;;;13.85
35960;BMP280;22043;50.970;7.192;2023-03-23T14:50:39;98228.53;;;13.79
35960;BMP280;22043;50.970;7.192;2023-03-23T14:53:15;98222.78;;;13.77
35960;BMP280;22043;50.970;7.192;2023-03-23T14:55:43;98228.38;;;13.74
35960;BMP280;22043;50.970;7.192;2023-03-23T14:58:13;98235.38;;;13.75
35960;BMP280;22043;50.970;7.192;2023-03-23T15:00:52;98231.75;;;13.69
35960;BMP280;22043;50.970;7.192;2023-03-23T15:03:24;98221.06;;;13.62
35960;BMP280;22043;50.970;7.192;2023-03-23T15:05:54;98226.56;;;13.71
35960;BMP280;22043;50.970;7.192;2023-03-23T15:08:25;98231.41;;;13.67
35960;BMP280;22043;50.970;7.192;2023-03-23T15:13:50;98234.03;;;13.70
35960;BMP280;22043;50.970;7.192;2023-03-23T15:16:22;98240.41;;;13.67
35960;BMP280;22043;50.970;7.192;2023-03-23T15:18:54;98232.03;;;13.62
35960;BMP280;22043;50.970;7.192;2023-03-23T15:21:26;98220.31;;;13.61
35960;BMP280;22043;50.970;7.192;2023-03-23T15:23:53;98226.13;;;13.63
35960;BMP280;22043;50.970;7.192;2023-03-23T15:26:42;98218.66;;;13.64
35960;BMP280;22043;50.970;7.192;2023-03-23T15:31:45;98200.88;;;13.77
35960;BMP280;22043;50.970;7.192;2023-03-23T15:34:13;98196.88;;;13.78
35960;BMP280;22043;50.970;7.192;2023-03-23T15:36:40;98185.81;;;13.82
35960;BMP280;22043;50.970;7.192;2023-03-23T15:39:10;98188.88;;;13.84
35960;BMP280;22043;50.970;7.192;2023-03-23T15:41:46;98181.69;;;13.87
35960;BMP280;22043;50.970;7.192;2023-03-23T15:44:20;98184.28;;;13.90
35960;BMP280;22043;50.970;7.192;2023-03-23T15:46:51;98186.25;;;13.90
35960;BMP280;22043;50.970;7.192;2023-03-23T15:49:17;98180.16;;;13.86
35960;BMP280;22043;50.970;7.192;2023-03-23T15:51:43;98178.03;;;13.90
35960;BMP280;22043;50.970;7.192;2023-03-23T15:54:13;98185.78;;;14.00
35960;BMP280;22043;50.970;7.192;2023-03-23T15:56:39;98191.88;;;13.95
35960;BMP280;22043;50.970;7.192;2023-03-23T15:59:05;98166.59;;;13.91
35960;BMP280;22043;50.970;7.192;2023-03-23T16:01:31;98187.28;;;13.92